Time;durP1;ratioP1;P1;durP2;ratioP2;P2;SDS_P1;SDS_P2;PMS_P1;PMS_P2;Temp;Humidity;BMP_temperature;BMP_pressure;BME280_temperature;BME280_humidity;BME280_pressure;Samples;Min_cycle;Max_cycle;Signal;HPM_P1;HPM_P2
2021/07/26 00:02:07;;;;;;;12.52;11.23;;;;;;;19.93;100.00;100235.28;4953355;29;20218;-75
2021/07/26 00:04:39;;;;;;;12.55;11.35;;;;;;;19.92;100.00;100237.19;4953666;28;20232;-76
2021/07/26 00:07:11;;;;;;;12.88;11.57;;;;;;;19.92;100.00;100239.16;4963079;28;20684;-74
2021/07/26 00:09:37;;;;;;;12.63;11.43;;;;;;;19.98;100.00;100235.84;4956745;28;20187;-73
2021/07/26 00:12:04;;;;;;;12.48;11.38;;;;;;;19.85;100.00;100228.72;4951063;29;20226;-74
2021/07/26 00:14:30;;;;;;;12.35;11.20;;;;;;;19.80;100.00;100230.88;4945602;28;20205;-75
2021/07/26 00:16:58;;;;;;;12.55;11.35;;;;;;;19.76;100.00;100222.47;4937184;28;20689;-74
2021/07/26 00:19:26;;;;;;;12.77;11.48;;;;;;;19.72;100.00;100226.22;4937689;28;20220;-74
2021/07/26 00:21:51;;;;;;;11.95;10.85;;;;;;;19.65;100.00;100215.00;4957240;28;20754;-75
2021/07/26 00:24:22;;;;;;;12.02;10.88;;;;;;;19.63;100.00;100216.47;4972579;28;20214;-74
2021/07/26 00:26:50;;;;;;;12.40;10.98;;;;;;;19.61;100.00;100213.25;4953048;28;20218;-74
2021/07/26 00:29:15;;;;;;;12.55;11.30;;;;;;;19.48;100.00;100212.41;4920959;28;20187;-74
2021/07/26 00:31:41;;;;;;;11.90;10.75;;;;;;;19.46;100.00;100211.16;4939682;28;20235;-75
2021/07/26 00:34:23;;;;;;;12.60;11.40;;;;;;;19.37;100.00;100202.16;4956925;28;20182;-75
2021/07/26 00:36:56;;;;;;;10.63;9.73;;;;;;;19.28;100.00;100206.97;4969347;28;20791;-73
2021/07/26 00:39:29;;;;;;;11.48;10.40;;;;;;;19.36;100.00;100195.88;4920781;29;20239;-74
2021/07/26 00:41:54;;;;;;;11.48;10.38;;;;;;;19.34;100.00;100202.88;4945288;28;20222;-74
2021/07/26 00:44:23;;;;;;;11.30;10.20;;;;;;;19.37;100.00;100199.41;4951199;28;20285;-74
2021/07/26 00:46:51;;;;;;;11.60;10.40;;;;;;;19.55;100.00;100198.88;4923385;28;20231;-74
2021/07/26 00:49:18;;;;;;;11.90;10.70;;;;;;;19.65;100.00;100201.22;4955920;28;20189;-76
2021/07/26 00:51:45;;;;;;;11.30;10.25;;;;;;;19.67;100.00;100207.97;4971743;28;20691;-74
2021/07/26 00:54:13;;;;;;;10.85;9.27;;;;;;;19.66;100.00;100213.03;4937275;29;20187;-74
2021/07/26 00:56:41;;;;;;;11.15;10.15;;;;;;;19.62;100.00;100203.84;4937636;29;20234;-75
2021/07/26 00:59:10;;;;;;;11.32;10.23;;;;;;;19.47;100.00;100201.75;4955940;28;20186;-74
2021/07/26 01:01:38;;;;;;;11.93;10.82;;;;;;;19.41;100.00;100197.59;4940859;28;20222;-75
2021/07/26 01:04:03;;;;;;;11.07;9.95;;;;;;;19.21;100.00;100197.66;4955214;28;20229;-75
2021/07/26 01:06:31;;;;;;;10.55;9.55;;;;;;;19.17;100.00;100203.03;4937055;29;20226;-76
2021/07/26 01:09:00;;;;;;;10.95;9.90;;;;;;;19.17;100.00;100194.75;4952829;28;20575;-74
2021/07/26 01:11:28;;;;;;;11.02;9.93;;;;;;;19.17;100.00;100197.50;4972534;28;20836;-74
2021/07/26 01:13:53;;;;;;;10.68;9.68;;;;;;;19.14;100.00;100191.88;4970978;28;20316;-74
2021/07/26 01:16:19;;;;;;;11.20;10.10;;;;;;;19.05;100.00;100202.19;4936777;29;20807;-74
2021/07/26 01:18:44;;;;;;;11.55;10.52;;;;;;;19.03;100.00;100207.25;4936197;29;20230;-75
2021/07/26 01:21:13;;;;;;;11.60;10.50;;;;;;;19.22;100.00;100204.78;4936822;29;20241;-75
2021/07/26 01:23:40;;;;;;;11.75;10.55;;;;;;;19.22;100.00;100216.59;4948146;28;20194;-75
2021/07/26 01:26:14;;;;;;;11.15;10.15;;;;;;;19.28;100.00;100215.22;4955482;28;20286;-75
2021/07/26 01:28:46;;;;;;;11.90;10.70;;;;;;;19.21;100.00;100215.00;4960907;28;20194;-74
2021/07/26 01:31:15;;;;;;;12.18;10.95;;;;;;;19.04;100.00;100212.38;4936264;29;20227;-74
2021/07/26 01:33:41;;;;;;;11.10;10.10;;;;;;;19.02;100.00;100211.13;4962324;28;20194;-75
2021/07/26 01:36:09;;;;;;;12.27;11.15;;;;;;;18.95;100.00;100217.16;4954459;28;20731;-74
2021/07/26 01:38:37;;;;;;;11.85;10.85;;;;;;;18.88;100.00;100215.25;4965224;28;20187;-76
2021/07/26 01:41:07;;;;;;;12.95;10.93;;;;;;;18.81;100.00;100220.50;4938759;28;20242;-75
2021/07/26 01:43:33;;;;;;;12.57;11.27;;;;;;;18.62;100.00;100220.19;4963589;28;20199;-75
2021/07/26 01:46:12;;;;;;;12.75;11.55;;;;;;;18.69;100.00;100217.69;4970536;28;20241;-75
2021/07/26 01:48:50;;;;;;;10.80;9.77;;;;;;;18.66;100.00;100226.63;4970987;28;20592;-75
2021/07/26 01:51:39;;;;;;;11.52;10.40;;;;;;;18.66;100.00;100234.88;4956040;28;20226;-75
2021/07/26 01:54:08;;;;;;;12.10;10.90;;;;;;;18.55;100.00;100234.47;4950601;28;20677;-74
2021/07/26 01:56:36;;;;;;;13.02;11.75;;;;;;;18.34;100.00;100238.34;4936440;28;20237;-76
2021/07/26 01:59:02;;;;;;;13.10;11.90;;;;;;;18.26;100.00;100241.94;4945407;28;20640;-75
2021/07/26 02:01:30;;;;;;;12.98;11.77;;;;;;;18.27;100.00;100238.03;4971323;28;20280;-76
2021/07/26 02:03:55;;;;;;;12.70;11.50;;;;;;;18.27;100.00;100243.56;4931113;29;20186;-75
2021/07/26 02:06:23;;;;;;;11.93;10.90;;;;;;;18.24;100.00;100244.22;4935441;28;20231;-74
2021/07/26 02:08:51;;;;;;;12.50;11.30;;;;;;;18.21;100.00;100244.88;4943300;28;20277;-75
2021/07/26 02:11:21;;;;;;;12.45;11.25;;;;;;;18.26;100.00;100252.94;4954352;28;20234;-74
2021/07/26 02:13:53;;;;;;;13.48;12.07;;;;;;;18.27;100.00;100246.31;4964114;28;20190;-74
2021/07/26 02:16:21;;;;;;;13.05;11.77;;;;;;;18.30;100.00;100248.41;4955303;28;20238;-74
2021/07/26 02:18:47;;;;;;;13.32;12.02;;;;;;;18.35;100.00;100250.97;4938985;28;20258;-74
2021/07/26 02:21:15;;;;;;;12.60;11.40;;;;;;;18.36;100.00;100255.31;4954567;28;20668;-75
2021/07/26 02:23:45;;;;;;;12.88;11.65;;;;;;;18.28;100.00;100250.66;4972107;28;20192;-76
2021/07/26 02:26:10;;;;;;;12.85;11.65;;;;;;;18.31;100.00;100244.50;4954861;28;20238;-74
2021/07/26 02:28:38;;;;;;;11.80;10.70;;;;;;;18.34;100.00;100249.34;4967998;28;20183;-75
2021/07/26 02:31:06;;;;;;;12.30;11.20;;;;;;;18.46;100.00;100246.69;4950196;28;20225;-74
2021/07/26 02:33:32;;;;;;;12.63;11.38;;;;;;;18.48;100.00;100249.09;4935861;28;20194;-74
2021/07/26 02:35:57;;;;;;;12.65;11.43;;;;;;;18.54;100.00;100254.06;4967724;28;20225;-75
2021/07/26 02:38:23;;;;;;;11.30;10.25;;;;;;;18.56;100.00;100262.78;4950546;28;20175;-75
2021/07/26 02:40:48;;;;;;;14.10;12.02;;;;;;;18.31;100.00;100263.75;4952657;28;20783;-75
2021/07/26 02:43:16;;;;;;;12.75;11.55;;;;;;;18.42;100.00;100262.22;4955341;28;20254;-74
2021/07/26 02:45:44;;;;;;;13.30;12.10;;;;;;;18.50;100.00;100262.19;4953434;28;20711;-74
2021/07/26 02:48:12;;;;;;;12.18;11.07;;;;;;;18.45;100.00;100267.06;4957119;28;20687;-74
2021/07/26 02:50:41;;;;;;;12.50;11.40;;;;;;;18.53;100.00;100264.28;4924835;29;20226;-75
2021/07/26 02:53:06;;;;;;;12.63;11.38;;;;;;;18.52;100.00;100257.16;4938266;29;20207;-75
2021/07/26 02:55:34;;;;;;;14.30;12.80;;;;;;;18.53;100.00;100252.44;4967668;28;20229;-76
2021/07/26 02:58:02;;;;;;;13.52;12.13;;;;;;;18.53;100.00;100253.28;4972874;28;20192;-76
2021/07/26 03:00:32;;;;;;;14.00;12.57;;;;;;;18.55;100.00;100261.16;4959461;28;20222;-75
2021/07/26 03:02:57;;;;;;;13.10;11.88;;;;;;;18.34;100.00;100254.84;4954115;28;20892;-75
2021/07/26 03:05:23;;;;;;;14.02;12.63;;;;;;;18.51;100.00;100265.72;4948863;28;20222;-75
2021/07/26 03:07:48;;;;;;;13.07;11.88;;;;;;;18.57;100.00;100254.22;4956550;28;20197;-73
2021/07/26 03:10:14;;;;;;;13.35;12.05;;;;;;;18.69;100.00;100253.47;4969145;28;20546;-75
2021/07/26 03:12:39;;;;;;;14.65;13.25;;;;;;;18.76;100.00;100256.50;4928143;28;20195;-75
2021/07/26 03:15:07;;;;;;;13.88;12.68;;;;;;;18.67;100.00;100256.56;4942599;29;20244;-75
2021/07/26 03:17:33;;;;;;;14.48;13.00;;;;;;;18.87;100.00;100260.47;4939349;28;20802;-74
2021/07/26 03:19:59;;;;;;;13.23;12.02;;;;;;;18.95;100.00;100266.72;4927766;28;20182;-75
2021/07/26 03:23:02;;;;;;;12.75;11.45;;;;;;;19.11;100.00;100262.22;4958740;28;20739;-75
2021/07/26 03:25:29;;;;;;;12.48;11.27;;;;;;;19.21;100.00;100264.56;4930815;28;20229;-74
2021/07/26 03:27:57;;;;;;;12.82;11.57;;;;;;;19.31;100.00;100275.97;4950361;28;20194;-74
2021/07/26 03:30:23;;;;;;;13.18;11.98;;;;;;;19.34;100.00;100272.53;4887792;28;1107671;-75
2021/07/26 03:32:50;;;;;;;13.90;11.30;;;;;;;19.35;100.00;100278.84;4919747;29;20677;-75
2021/07/26 03:35:16;;;;;;;13.32;10.98;;;;;;;19.23;100.00;100281.56;4941715;28;20218;-73
2021/07/26 03:37:44;;;;;;;12.43;11.23;;;;;;;19.43;100.00;100277.94;4938314;29;20187;-76
2021/07/26 03:40:10;;;;;;;12.48;11.27;;;;;;;19.53;100.00;100277.53;4953238;28;20187;-74
2021/07/26 03:42:39;;;;;;;13.50;12.20;;;;;;;19.43;100.00;100270.50;4950638;28;20178;-74
2021/07/26 03:45:08;;;;;;;12.65;11.55;;;;;;;19.44;100.00;100268.56;4951674;28;20301;-75
2021/07/26 03:47:34;;;;;;;11.95;10.85;;;;;;;19.39;100.00;100282.53;4957755;28;20229;-74
2021/07/26 03:50:00;;;;;;;12.02;10.82;;;;;;;19.61;100.00;100273.88;4951640;28;20190;-74
2021/07/26 03:52:25;;;;;;;12.80;11.57;;;;;;;19.66;100.00;100274.47;4944361;28;20653;-75
2021/07/26 03:54:54;;;;;;;11.35;10.35;;;;;;;19.78;100.00;100275.31;4938408;28;20207;-75
2021/07/26 03:57:22;;;;;;;11.60;10.40;;;;;;;19.73;100.00;100278.28;4955966;28;20238;-75
2021/07/26 03:59:50;;;;;;;11.05;10.00;;;;;;;19.68;100.00;100281.25;4937964;29;20191;-75
2021/07/26 04:02:16;;;;;;;12.13;10.98;;;;;;;19.50;100.00;100286.47;4952437;28;20596;-76
2021/07/26 04:04:42;;;;;;;12.52;11.35;;;;;;;19.45;100.00;100293.00;4936912;29;20218;-73
2021/07/26 04:07:15;;;;;;;12.25;10.70;;;;;;;19.63;100.00;100288.13;4956267;28;20219;-75
2021/07/26 04:09:48;;;;;;;11.90;10.85;;;;;;;19.61;100.00;100288.47;4953754;28;20183;-75
2021/07/26 04:12:19;;;;;;;12.20;11.15;;;;;;;19.89;100.00;100292.22;4948668;28;20229;-74
2021/07/26 04:14:45;;;;;;;11.82;10.73;;;;;;;19.99;100.00;100287.09;4933036;28;20210;-75
2021/07/26 04:17:10;;;;;;;12.38;11.18;;;;;;;19.99;100.00;100287.09;4935785;28;20237;-76
2021/07/26 04:19:38;;;;;;;12.57;11.48;;;;;;;19.72;100.00;100298.72;4954249;28;20201;-76
2021/07/26 04:22:04;;;;;;;12.27;11.18;;;;;;;19.63;100.00;100296.38;4953037;29;20269;-76
2021/07/26 04:24:29;;;;;;;12.40;11.20;;;;;;;19.66;100.00;100304.78;4953503;28;20653;-75
2021/07/26 04:26:55;;;;;;;13.07;11.88;;;;;;;19.59;100.00;100312.00;4946306;28;20222;-75
2021/07/26 04:29:23;;;;;;;12.45;11.25;;;;;;;19.66;100.00;100311.09;4943359;28;20221;-75
2021/07/26 04:31:51;;;;;;;14.00;12.60;;;;;;;19.73;100.00;100307.81;4946117;28;20225;-74
2021/07/26 04:34:17;;;;;;;14.23;12.82;;;;;;;19.65;100.00;100305.13;4973106;28;20600;-73
2021/07/26 04:36:45;;;;;;;14.95;13.57;;;;;;;19.37;100.00;100309.63;4955992;28;20317;-76
2021/07/26 04:39:10;;;;;;;13.55;12.15;;;;;;;19.64;100.00;100311.78;4939881;28;20575;-74
2021/07/26 04:41:36;;;;;;;13.52;12.32;;;;;;;19.95;100.00;100310.97;4952854;28;20230;-74
2021/07/26 04:44:02;;;;;;;13.93;12.48;;;;;;;19.96;100.00;100309.81;4932379;28;20194;-74
2021/07/26 04:46:27;;;;;;;14.05;12.70;;;;;;;20.22;100.00;100307.59;4952736;28;20245;-75
2021/07/26 04:48:53;;;;;;;13.52;12.13;;;;;;;20.24;100.00;100310.81;4920996;28;20669;-75
2021/07/26 04:51:18;;;;;;;44.20;39.97;;;;;;;20.16;100.00;100320.81;4925918;28;20277;-76
2021/07/26 04:53:44;;;;;;;28.77;25.80;;;;;;;20.11;100.00;100323.78;4955974;28;20198;-76
2021/07/26 04:56:17;;;;;;;53.10;47.22;;;;;;;20.06;100.00;100318.47;4952215;28;20226;-75
2021/07/26 04:58:45;;;;;;;16.80;15.20;;;;;;;20.23;100.00;100312.75;4937480;29;20269;-73
2021/07/26 05:01:11;;;;;;;16.23;14.63;;;;;;;20.32;100.00;100312.63;4953218;28;20229;-75
2021/07/26 05:03:39;;;;;;;16.52;14.90;;;;;;;20.52;100.00;100312.53;4954303;28;20182;-75
2021/07/26 05:06:06;;;;;;;16.08;14.45;;;;;;;20.71;100.00;100318.28;4952768;28;20227;-75
2021/07/26 05:08:31;;;;;;;16.08;14.68;;;;;;;21.05;100.00;100315.81;4954993;28;20242;-74
2021/07/26 05:10:57;;;;;;;15.90;14.40;;;;;;;21.19;100.00;100310.69;4944116;28;20223;-74
2021/07/26 05:13:23;;;;;;;15.35;13.82;;;;;;;21.30;100.00;100318.16;4947984;29;20191;-74
2021/07/26 05:15:49;;;;;;;15.20;13.88;;;;;;;21.34;100.00;100314.34;4965595;28;20230;-74
2021/07/26 05:18:19;;;;;;;15.40;14.00;;;;;;;21.53;100.00;100314.53;4950741;28;20214;-77
2021/07/26 05:20:45;;;;;;;15.15;13.70;;;;;;;21.54;100.00;100321.66;4935732;29;20627;-76
2021/07/26 05:23:13;;;;;;;16.00;14.43;;;;;;;21.30;100.00;100320.94;4952948;28;20182;-74
2021/07/26 05:25:43;;;;;;;16.08;14.38;;;;;;;21.49;100.00;100310.84;4955781;28;20226;-74
2021/07/26 05:28:14;;;;;;;16.17;14.77;;;;;;;21.27;100.00;100308.59;4940456;28;20190;-75
2021/07/26 05:30:42;;;;;;;22.23;19.98;;;;;;;21.30;100.00;100307.91;4936418;28;20603;-74
2021/07/26 05:33:08;;;;;;;16.77;15.07;;;;;;;21.40;100.00;100306.59;4967168;28;20305;-73
2021/07/26 05:35:36;;;;;;;15.90;14.50;;;;;;;21.57;100.00;100309.09;4955219;28;20237;-74
2021/07/26 05:38:09;;;;;;;17.13;15.52;;;;;;;21.75;100.00;100308.41;4924546;28;20210;-73
2021/07/26 05:40:34;;;;;;;16.20;14.73;;;;;;;21.75;100.00;100302.88;4962284;28;20226;-73
2021/07/26 05:43:00;;;;;;;15.20;13.77;;;;;;;21.83;100.00;100304.69;4940141;28;20181;-74
2021/07/26 05:45:28;;;;;;;15.10;13.75;;;;;;;21.87;100.00;100306.41;4952796;28;20222;-74
2021/07/26 05:47:56;;;;;;;15.45;14.05;;;;;;;21.72;100.00;100300.81;4932820;28;20274;-74
2021/07/26 05:50:22;;;;;;;15.63;14.13;;;;;;;22.10;100.00;100299.88;4953764;28;20183;-74
2021/07/26 05:52:47;;;;;;;15.25;13.82;;;;;;;21.92;100.00;100305.31;4934826;29;20255;-72
2021/07/26 05:55:14;;;;;;;14.98;13.57;;;;;;;21.86;100.00;100306.75;4933738;28;20214;-74
2021/07/26 05:57:44;;;;;;;13.95;12.65;;;;;;;21.90;100.00;100305.66;4909944;28;20181;-74
2021/07/26 06:00:13;;;;;;;14.32;12.85;;;;;;;22.13;100.00;100298.38;4968587;28;20249;-75
2021/07/26 06:02:40;;;;;;;14.05;12.75;;;;;;;22.38;100.00;100295.13;4947167;28;20190;-73
2021/07/26 06:05:09;;;;;;;13.50;12.30;;;;;;;22.02;100.00;100300.88;4951164;28;20306;-73
2021/07/26 06:07:37;;;;;;;13.60;12.30;;;;;;;21.95;100.00;100302.66;4957242;28;20206;-73
2021/07/26 06:10:02;;;;;;;13.95;12.50;;;;;;;21.99;100.00;100297.22;4970286;28;20233;-74
2021/07/26 06:12:29;;;;;;;13.32;12.07;;;;;;;22.28;100.00;100295.63;4963886;28;20558;-74
2021/07/26 06:14:57;;;;;;;11.05;10.05;;;;;;;22.32;100.00;100291.00;4943632;28;20207;-74
2021/07/26 06:17:22;;;;;;;10.38;9.48;;;;;;;22.20;100.00;100295.84;4951322;29;20230;-75
2021/07/26 06:19:48;;;;;;;12.40;11.10;;;;;;;22.45;100.00;100306.34;4919868;29;20227;-72
2021/07/26 06:22:15;;;;;;;12.20;11.07;;;;;;;22.68;100.00;100308.09;4939891;28;20259;-73
2021/07/26 06:24:45;;;;;;;11.68;10.68;;;;;;;22.59;100.00;100317.78;4975092;28;20308;-72
2021/07/26 06:27:11;;;;;;;11.30;10.30;;;;;;;22.38;100.00;100316.44;4975488;28;20222;-73
2021/07/26 06:29:36;;;;;;;11.30;10.30;;;;;;;22.32;100.00;100318.66;4955385;28;20683;-72
2021/07/26 06:32:06;;;;;;;10.82;9.82;;;;;;;22.37;100.00;100314.84;4955152;29;20282;-73
2021/07/26 06:34:39;;;;;;;10.43;9.52;;;;;;;22.78;100.00;100308.38;4955415;28;20178;-72
2021/07/26 06:37:11;;;;;;;10.18;9.27;;;;;;;23.13;100.00;100314.72;4939255;29;20258;-72
2021/07/26 06:39:37;;;;;;;9.70;8.80;;;;;;;23.29;100.00;100312.69;4941160;28;20818;-71
2021/07/26 06:42:03;;;;;;;10.00;9.00;;;;;;;23.42;100.00;100319.69;4968529;28;20218;-72
2021/07/26 06:44:28;;;;;;;10.00;9.10;;;;;;;23.05;100.00;100321.28;4972776;28;20578;-72
2021/07/26 06:46:54;;;;;;;9.02;8.25;;;;;;;23.21;100.00;100330.34;4942097;28;20225;-72
2021/07/26 06:49:19;;;;;;;8.80;8.00;;;;;;;23.31;100.00;100324.22;4959802;28;20718;-73
2021/07/26 06:51:45;;;;;;;8.32;7.63;;;;;;;23.65;100.00;100324.97;4938808;29;20218;-72
2021/07/26 06:54:10;;;;;;;8.60;7.80;;;;;;;23.87;100.00;100321.44;4951975;28;20194;-73
2021/07/26 06:56:40;;;;;;;7.57;6.88;;;;;;;23.61;100.00;100326.88;4943641;28;20232;-73
2021/07/26 06:59:08;;;;;;;7.40;6.72;;;;;;;23.70;100.00;100335.00;4941055;28;20179;-73
2021/07/26 07:01:36;;;;;;;7.40;6.70;;;;;;;23.66;100.00;100332.13;4940445;28;20229;-72
2021/07/26 07:04:01;;;;;;;7.07;6.38;;;;;;;23.41;100.00;100332.75;4950400;28;20232;-74
2021/07/26 07:06:27;;;;;;;7.65;6.95;;;;;;;23.34;100.00;100335.38;4943726;28;20720;-72
2021/07/26 07:08:53;;;;;;;7.68;6.82;;;;;;;23.61;100.00;100326.88;4967601;28;20184;-73
2021/07/26 07:11:24;;;;;;;7.35;6.65;;;;;;;23.79;100.00;100325.25;4960050;28;20304;-73
2021/07/26 07:13:50;;;;;;;7.63;6.93;;;;;;;23.59;100.00;100334.78;4969128;28;20186;-73
2021/07/26 07:16:19;;;;;;;7.82;7.03;;;;;;;23.63;100.00;100332.88;4958516;28;20268;-73
2021/07/26 07:18:57;;;;;;;7.78;7.00;;;;;;;23.78;100.00;100329.19;4942499;28;20240;-73
2021/07/26 07:21:27;;;;;;;7.70;6.90;;;;;;;23.90;100.00;100331.81;4941806;28;20234;-73
2021/07/26 07:23:53;;;;;;;7.88;7.18;;;;;;;23.70;100.00;100335.00;4952469;29;20935;-72
2021/07/26 07:26:21;;;;;;;7.68;6.97;;;;;;;23.69;100.00;100336.16;4938374;29;20245;-73
2021/07/26 07:28:47;;;;;;;7.32;6.72;;;;;;;23.79;100.00;100336.38;4943295;28;20699;-73
2021/07/26 07:31:15;;;;;;;7.45;6.85;;;;;;;23.65;100.00;100346.38;4957081;28;20229;-72
2021/07/26 07:33:41;;;;;;;6.68;6.18;;;;;;;23.67;100.00;100333.72;4969478;28;20262;-71
2021/07/26 07:36:07;;;;;;;6.47;5.88;;;;;;;23.35;100.00;100333.41;4947982;28;20254;-70
2021/07/26 07:38:33;;;;;;;7.18;5.65;;;;;;;23.57;100.00;100342.63;4954700;28;20285;-72
2021/07/26 07:40:59;;;;;;;6.93;5.63;;;;;;;23.55;100.00;100332.25;4973115;28;20210;-73
2021/07/26 07:43:26;;;;;;;5.82;5.25;;;;;;;24.01;100.00;100330.06;4949782;28;20286;-72
2021/07/26 07:45:54;;;;;;;5.50;5.03;;;;;;;23.96;100.00;100344.22;4953973;28;20231;-73
2021/07/26 07:48:24;;;;;;;5.90;5.30;;;;;;;24.26;100.00;100348.75;4938367;29;20186;-72
2021/07/26 07:50:55;;;;;;;5.22;4.78;;;;;;;24.53;100.00;100351.25;4972142;28;20240;-71
2021/07/26 07:53:24;;;;;;;5.30;4.80;;;;;;;24.60;100.00;100351.38;4957877;28;20213;-72
2021/07/26 07:55:52;;;;;;;5.13;4.50;;;;;;;24.18;100.00;100360.91;4955768;28;20219;-72
2021/07/26 07:58:20;;;;;;;4.85;4.43;;;;;;;24.44;100.00;100358.22;4953777;29;20180;-72
2021/07/26 08:00:56;;;;;;;5.10;4.60;;;;;;;24.87;100.00;100350.19;4953383;28;20687;-73
2021/07/26 08:03:22;;;;;;;4.78;4.38;;;;;;;25.17;100.00;100347.13;4958188;28;20232;-72
2021/07/26 08:05:49;;;;;;;5.22;4.43;;;;;;;25.21;99.89;100349.97;4957847;28;20234;-73
2021/07/26 08:08:17;;;;;;;4.72;4.22;;;;;;;24.92;97.93;100347.09;4937736;29;20178;-72
2021/07/26 08:10:45;;;;;;;4.85;4.40;;;;;;;25.46;94.06;100351.06;4951821;28;20590;-72
2021/07/26 08:13:23;;;;;;;4.55;4.15;;;;;;;25.69;95.07;100344.25;4950915;29;20199;-72
2021/07/26 08:15:53;;;;;;;5.25;3.90;;;;;;;25.90;88.54;100345.31;4955626;28;20258;-73
2021/07/26 08:18:21;;;;;;;4.40;4.00;;;;;;;26.10;86.06;100344.75;4956749;28;20185;-73
2021/07/26 08:20:49;;;;;;;4.57;4.18;;;;;;;26.79;81.58;100344.59;4937107;29;20605;-73
2021/07/26 08:23:15;;;;;;;4.30;3.90;;;;;;;26.00;78.25;100353.75;4922012;29;20187;-74
2021/07/26 08:25:45;;;;;;;7.28;6.65;;;;;;;26.19;90.15;100353.59;4980916;28;20226;-73
2021/07/26 08:28:13;;;;;;;6.03;5.43;;;;;;;26.60;89.62;100346.84;4972302;28;20297;-73
2021/07/26 08:30:41;;;;;;;7.20;6.55;;;;;;;26.56;89.00;100349.59;4944768;28;20223;-73
2021/07/26 08:33:06;;;;;;;6.72;6.13;;;;;;;26.74;89.82;100342.97;4953480;28;20218;-72
2021/07/26 08:35:32;;;;;;;6.95;6.32;;;;;;;26.29;92.26;100341.78;4946535;28;20305;-75
2021/07/26 08:38:00;;;;;;;7.32;6.63;;;;;;;26.34;91.90;100347.00;4973033;28;20209;-72
2021/07/26 08:40:26;;;;;;;7.93;7.15;;;;;;;25.97;96.27;100351.75;4965021;28;20224;-72
2021/07/26 08:42:55;;;;;;;8.63;7.70;;;;;;;26.12;96.79;100345.16;4962439;28;20198;-73
2021/07/26 08:45:20;;;;;;;9.93;8.57;;;;;;;26.04;96.71;100349.06;4952194;28;20301;-73
2021/07/26 08:47:48;;;;;;;9.95;8.95;;;;;;;25.84;97.81;100351.59;4971787;28;20183;-73
2021/07/26 08:50:17;;;;;;;8.82;8.00;;;;;;;26.21;96.73;100355.97;4966224;28;20250;-73
2021/07/26 08:52:47;;;;;;;10.00;9.10;;;;;;;26.00;96.00;100355.75;4937210;29;20281;-73
2021/07/26 08:55:14;;;;;;;8.95;8.15;;;;;;;26.39;95.63;100357.78;4941164;28;20716;-71
2021/07/26 08:57:45;;;;;;;9.55;8.75;;;;;;;26.68;91.93;100354.06;4956442;28;20179;-74
2021/07/26 09:00:13;;;;;;;9.77;8.98;;;;;;;26.39;93.21;100347.44;4952292;28;20202;-72
2021/07/26 09:02:38;;;;;;;9.73;8.90;;;;;;;26.10;94.52;100353.09;4937749;29;20724;-72
2021/07/26 09:05:06;;;;;;;10.60;9.63;;;;;;;26.43;94.53;100348.28;4956473;28;20210;-72
2021/07/26 09:07:43;;;;;;;10.35;9.43;;;;;;;27.15;92.21;100341.69;4956703;28;20233;-73
2021/07/26 09:10:21;;;;;;;9.85;8.95;;;;;;;27.48;87.73;100345.09;4955702;28;20614;-72
2021/07/26 09:12:54;;;;;;;10.23;9.15;;;;;;;27.07;87.53;100351.22;4950791;28;20637;-74
2021/07/26 09:15:23;;;;;;;9.68;8.68;;;;;;;27.53;85.50;100348.31;4952768;28;20206;-74
2021/07/26 09:17:51;;;;;;;8.70;7.95;;;;;;;27.44;86.00;100343.47;4988554;28;20181;-75
2021/07/26 09:20:28;;;;;;;8.40;7.60;;;;;;;27.29;83.81;100345.38;4970677;28;20182;-74
2021/07/26 09:22:58;;;;;;;8.40;7.57;;;;;;;27.19;81.13;100348.09;4954521;28;20190;-73
2021/07/26 09:25:29;;;;;;;7.95;7.20;;;;;;;27.53;83.50;100345.50;4937904;28;20211;-74
2021/07/26 09:28:02;;;;;;;7.50;6.80;;;;;;;27.36;82.67;100339.00;4955684;28;20723;-73
2021/07/26 09:30:41;;;;;;;7.38;6.68;;;;;;;27.68;75.64;100346.38;4968963;28;20309;-73
2021/07/26 09:33:20;;;;;;;7.65;6.78;;;;;;;27.08;76.98;100349.22;4937920;29;20195;-73
2021/07/26 09:36:08;;;;;;;6.88;6.28;;;;;;;26.85;80.66;100346.66;4954241;28;20224;-74
2021/07/26 09:38:34;;;;;;;7.28;6.57;;;;;;;26.79;80.55;100350.16;4971567;28;20194;-74
2021/07/26 09:41:01;;;;;;;7.75;7.05;;;;;;;26.83;79.54;100346.25;4954872;28;20650;-73
2021/07/26 09:43:27;;;;;;;6.47;5.88;;;;;;;27.52;78.80;100346.69;4947825;28;20221;-72
2021/07/26 09:45:54;;;;;;;6.85;6.25;;;;;;;27.17;81.28;100344.88;4970385;28;20305;-73
2021/07/26 09:48:26;;;;;;;6.32;5.72;;;;;;;27.43;74.57;100341.84;4956199;28;20178;-73
2021/07/26 09:50:57;;;;;;;5.97;5.47;;;;;;;28.10;73.71;100348.13;4952522;28;20217;-73
2021/07/26 09:53:24;;;;;;;5.80;5.30;;;;;;;28.32;74.25;100342.19;4936551;29;20533;-72
2021/07/26 09:55:51;;;;;;;6.18;5.60;;;;;;;28.72;73.27;100348.22;4936803;28;20278;-73
2021/07/26 09:58:18;;;;;;;6.63;5.85;;;;;;;28.13;70.77;100349.31;4987098;28;20189;-72
2021/07/26 10:00:51;;;;;;;6.00;5.50;;;;;;;28.32;70.43;100353.38;4939056;28;20253;-74
2021/07/26 10:03:17;;;;;;;5.05;4.47;;;;;;;28.18;68.05;100346.16;4952008;28;20692;-72
2021/07/26 10:05:43;;;;;;;4.10;3.80;;;;;;;28.34;64.34;100348.16;4951208;28;20226;-73
2021/07/26 10:08:09;;;;;;;4.13;3.83;;;;;;;28.59;63.27;100351.81;4970238;28;20190;-73
2021/07/26 10:10:38;;;;;;;3.97;3.67;;;;;;;28.98;60.79;100341.41;4970863;28;20228;-73
2021/07/26 10:13:12;;;;;;;5.28;3.83;;;;;;;29.24;60.23;100334.19;4941637;29;20193;-73
2021/07/26 10:15:37;;;;;;;4.20;3.90;;;;;;;29.12;60.54;100339.38;4970149;28;20301;-73
2021/07/26 10:18:08;;;;;;;4.45;4.05;;;;;;;28.83;59.27;100351.03;4954957;28;20614;-73
2021/07/26 10:21:02;;;;;;;4.38;3.78;;;;;;;28.58;64.87;100353.00;4922917;28;20723;-73
2021/07/26 10:23:38;;;;;;;4.45;4.05;;;;;;;28.42;64.51;100358.16;4957698;28;20219;-73
2021/07/26 10:26:09;;;;;;;3.50;3.20;;;;;;;28.54;56.52;100343.81;4984909;28;20226;-72
2021/07/26 10:28:44;;;;;;;4.63;4.22;;;;;;;29.06;58.31;100347.41;4915048;29;20195;-74
2021/07/26 10:31:28;;;;;;;5.50;5.10;;;;;;;28.61;64.11;100349.44;4916439;28;20286;-73
2021/07/26 10:34:03;;;;;;;5.20;4.70;;;;;;;28.74;61.89;100348.63;4953192;28;20197;-72
2021/07/26 10:36:43;;;;;;;5.45;4.95;;;;;;;29.15;63.48;100346.97;4952272;28;20322;-72
2021/07/26 10:39:09;;;;;;;5.60;4.88;;;;;;;29.17;61.10;100345.38;4954254;28;20189;-72
2021/07/26 10:41:46;;;;;;;5.63;5.10;;;;;;;29.30;61.28;100340.97;4968882;28;20218;-72
2021/07/26 10:44:15;;;;;;;4.95;3.78;;;;;;;28.89;59.66;100350.22;4946711;29;20199;-72
2021/07/26 10:47:08;;;;;;;4.70;3.90;;;;;;;29.29;60.20;100342.19;4952213;28;20743;-72
2021/07/26 10:49:45;;;;;;;4.22;3.83;;;;;;;29.39;57.64;100346.94;4970587;28;20193;-72
2021/07/26 10:52:23;;;;;;;4.18;3.78;;;;;;;29.77;56.70;100344.03;4963351;28;20227;-72
2021/07/26 10:54:51;;;;;;;3.08;2.85;;;;;;;29.29;53.58;100339.38;4949774;28;20206;-74
2021/07/26 10:57:38;;;;;;;3.75;3.15;;;;;;;29.78;51.06;100347.63;4901885;29;20228;-72
2021/07/26 11:00:11;;;;;;;3.42;2.80;;;;;;;29.78;51.36;100339.22;4944042;29;20270;-75
2021/07/26 11:02:40;;;;;;;2.70;2.50;;;;;;;29.07;50.06;100334.19;4954391;28;20243;-75
2021/07/26 11:05:46;;;;;;;10.82;9.77;;;;;;;29.15;53.56;100328.16;4904000;29;20203;-75
2021/07/26 11:08:14;;;;;;;3.10;2.60;;;;;;;29.96;51.44;100338.72;4880855;29;20225;-72
2021/07/26 11:10:56;;;;;;;3.92;2.35;;;;;;;30.21;48.84;100330.97;4939747;28;20222;-73
2021/07/26 11:13:23;;;;;;;2.80;2.60;;;;;;;30.44;52.20;100320.00;4953908;28;20198;-73
2021/07/26 11:15:57;;;;;;;2.97;2.63;;;;;;;30.63;48.25;100333.50;4940970;28;20222;-73
2021/07/26 11:18:29;;;;;;;2.70;2.50;;;;;;;30.89;46.27;100337.28;4946389;29;20234;-74